Time;durP1;ratioP1;P1;durP2;ratioP2;P2;SDS_P1;SDS_P2;PMS_P1;PMS_P2;Temp;Humidity;BMP_temperature;BMP_pressure;BME280_temperature;BME280_humidity;BME280_pressure;Samples;Min_cycle;Max_cycle;Signal;HPM_P1;HPM_P2
2021/10/21 00:01:05;;;;;;;;;;;15.10;99.90;;;;;;5070059;28;20453;-79
2021/10/21 00:03:32;;;;;;;;;;;15.10;99.90;;;;;;5068170;28;19949;-80
2021/10/21 00:05:59;;;;;;;;;;;15.00;99.90;;;;;;5066703;28;19999;-80
2021/10/21 00:08:26;;;;;;;;;;;14.90;99.90;;;;;;5068132;28;20455;-78
2021/10/21 00:10:53;;;;;;;;;;;14.80;99.90;;;;;;5072359;28;20439;-78
2021/10/21 00:13:19;;;;;;;;;;;14.80;99.90;;;;;;5067395;28;20426;-79
2021/10/21 00:15:48;;;;;;;;;;;14.70;99.90;;;;;;5068592;28;19999;-79
2021/10/21 00:18:16;;;;;;;;;;;14.60;99.90;;;;;;5070272;28;20354;-76
2021/10/21 00:20:44;;;;;;;;;;;14.40;99.90;;;;;;5070219;28;19965;-78
2021/10/21 00:23:12;;;;;;;;;;;13.80;99.90;;;;;;5068326;28;19945;-79
2021/10/21 00:25:41;;;;;;;;;;;13.30;99.90;;;;;;5064141;28;19950;-78
2021/10/21 00:28:12;;;;;;;;;;;13.20;99.90;;;;;;5067915;28;19949;-78
2021/10/21 00:30:40;;;;;;;;;;;13.30;99.90;;;;;;5067983;28;20132;-79
2021/10/21 00:33:11;;;;;;;;;;;13.40;99.90;;;;;;5072854;28;20370;-80
2021/10/21 00:35:39;;;;;;;;;;;13.40;99.90;;;;;;5071193;28;20000;-80
2021/10/21 00:38:07;;;;;;;;;;;13.40;99.90;;;;;;5073815;28;19948;-79
2021/10/21 00:40:35;;;;;;;;;;;13.30;99.90;;;;;;5073778;28;19966;-80
2021/10/21 00:43:02;;;;;;;;;;;13.30;99.90;;;;;;5069594;28;19953;-80
2021/10/21 00:45:30;;;;;;;;;;;13.30;99.90;;;;;;5074076;28;20028;-80
2021/10/21 00:47:57;;;;;;;;;;;13.20;99.90;;;;;;5072699;28;19947;-80
2021/10/21 00:50:31;;;;;;;;;;;13.30;99.90;;;;;;5075440;28;20035;-80
2021/10/21 00:53:03;;;;;;;;;;;13.30;99.90;;;;;;5072520;28;19956;-80
2021/10/21 00:55:35;;;;;;;;;;;13.30;99.90;;;;;;5068265;28;20009;-78
2021/10/21 00:58:03;;;;;;;;;;;13.40;99.90;;;;;;5070430;28;20316;-79
2021/10/21 01:00:35;;;;;;;;;;;13.50;99.90;;;;;;5073739;28;20016;-80
2021/10/21 01:03:02;;;;;;;;;;;13.60;99.90;;;;;;5070887;28;20351;-78
2021/10/21 01:05:32;;;;;;;;;;;13.60;99.90;;;;;;5073893;28;19951;-79
2021/10/21 01:08:00;;;;;;;;;;;13.60;99.90;;;;;;5069574;28;19961;-79
2021/10/21 01:10:28;;;;;;;;;;;13.50;99.90;;;;;;5073433;28;19969;-79
2021/10/21 01:12:59;;;;;;;;;;;13.40;99.90;;;;;;5070009;28;19997;-79
2021/10/21 01:15:28;;;;;;;;;;;13.40;99.90;;;;;;5071037;28;19965;-79
2021/10/21 01:18:02;;;;;;;;;;;13.40;99.90;;;;;;5070244;28;19951;-78
2021/10/21 01:20:34;;;;;;;;;;;13.30;99.90;;;;;;5070845;28;20033;-79
2021/10/21 01:23:02;;;;;;;;;;;13.20;99.90;;;;;;5064167;28;20413;-79
2021/10/21 01:25:31;;;;;;;;;;;13.10;99.90;;;;;;5071555;28;19960;-80
2021/10/21 01:28:01;;;;;;;;;;;13.10;99.90;;;;;;5068531;28;19952;-79
2021/10/21 01:30:30;;;;;;;;;;;13.00;99.90;;;;;;5071613;28;19950;-79
2021/10/21 01:32:58;;;;;;;;;;;13.00;99.90;;;;;;5071203;28;19948;-80
2021/10/21 01:35:33;;;;;;;;;;;12.80;99.90;;;;;;5071640;28;20375;-79
2021/10/21 01:38:03;;;;;;;;;;;12.80;99.90;;;;;;5067188;28;20416;-80
2021/10/21 01:40:31;;;;;;;;;;;12.70;99.90;;;;;;5071539;28;19952;-79
2021/10/21 01:42:59;;;;;;;;;;;12.70;99.90;;;;;;5070665;28;19953;-78
2021/10/21 01:45:29;;;;;;;;;;;12.70;99.90;;;;;;5071463;28;19955;-79
2021/10/21 01:47:58;;;;;;;;;;;12.50;99.90;;;;;;5066531;28;19959;-79
2021/10/21 01:50:25;;;;;;;;;;;12.40;99.90;;;;;;5069624;28;19956;-79
2021/10/21 01:53:02;;;;;;;;;;;12.20;99.90;;;;;;5069936;28;20389;-78
2021/10/21 01:55:31;;;;;;;;;;;12.10;99.90;;;;;;5067621;28;19977;-79
2021/10/21 01:57:59;;;;;;;;;;;12.00;99.90;;;;;;5068727;28;19951;-80
2021/10/21 02:00:27;;;;;;;;;;;11.90;99.90;;;;;;5070102;28;19987;-78
2021/10/21 02:02:54;;;;;;;;;;;11.80;99.90;;;;;;5068649;28;20065;-78
2021/10/21 02:05:22;;;;;;;;;;;11.70;99.90;;;;;;5068866;28;19991;-80
2021/10/21 02:07:50;;;;;;;;;;;11.60;99.90;;;;;;5070300;28;19945;-79
2021/10/21 02:10:18;;;;;;;;;;;11.60;99.90;;;;;;5069249;28;19968;-79
2021/10/21 02:12:49;;;;;;;;;;;11.50;99.90;;;;;;5071247;28;19956;-80
2021/10/21 02:15:17;;;;;;;;;;;11.50;99.90;;;;;;5070588;28;20352;-79
2021/10/21 02:17:47;;;;;;;;;;;11.50;99.90;;;;;;5070332;28;20339;-80
2021/10/21 02:20:15;;;;;;;;;;;11.40;99.90;;;;;;5069722;28;19967;-80
2021/10/21 02:22:43;;;;;;;;;;;11.40;99.90;;;;;;5071283;28;19983;-79
2021/10/21 02:25:11;;;;;;;;;;;11.40;99.90;;;;;;5069532;28;20386;-79
2021/10/21 02:27:39;;;;;;;;;;;11.40;99.90;;;;;;5067541;28;19991;-79
2021/10/21 02:30:09;;;;;;;;;;;11.40;99.90;;;;;;5067311;28;19952;-79
2021/10/21 02:32:38;;;;;;;;;;;11.40;99.90;;;;;;5070314;28;19981;-80
2021/10/21 02:35:10;;;;;;;;;;;11.40;99.90;;;;;;5069362;28;19943;-80
2021/10/21 02:37:38;;;;;;;;;;;11.50;99.90;;;;;;5068804;28;20363;-81
2021/10/21 02:40:10;;;;;;;;;;;11.50;99.90;;;;;;5069861;28;19949;-80
2021/10/21 02:42:38;;;;;;;;;;;11.50;99.90;;;;;;5064294;28;19965;-80
2021/10/21 02:45:10;;;;;;;;;;;11.50;99.90;;;;;;5069382;28;19959;-79
2021/10/21 02:47:37;;;;;;;;;;;11.50;99.90;;;;;;5067108;28;19945;-79
2021/10/21 02:50:09;;;;;;;;;;;11.60;99.90;;;;;;5069451;28;20093;-78
2021/10/21 02:52:37;;;;;;;;;;;11.60;99.90;;;;;;5068586;28;19965;-79
2021/10/21 02:55:05;;;;;;;;;;;11.70;99.90;;;;;;5073203;28;19991;-80
2021/10/21 02:57:33;;;;;;;;;;;11.70;99.90;;;;;;5068015;28;20492;-78
2021/10/21 03:00:03;;;;;;;;;;;11.70;99.90;;;;;;5068829;28;19947;-78
2021/10/21 03:02:35;;;;;;;;;;;11.70;99.90;;;;;;5066111;28;20047;-78
2021/10/21 03:05:03;;;;;;;;;;;11.60;99.90;;;;;;5066057;28;19952;-78
2021/10/21 03:07:35;;;;;;;;;;;11.50;99.90;;;;;;5068239;28;19954;-77
2021/10/21 03:10:02;;;;;;;;;;;11.50;99.90;;;;;;5068533;28;19964;-77
2021/10/21 03:12:29;;;;;;;;;;;11.50;99.90;;;;;;5065732;28;20004;-78
2021/10/21 03:14:56;;;;;;;;;;;11.40;99.90;;;;;;5069666;28;19948;-78
2021/10/21 03:17:24;;;;;;;;;;;11.40;99.90;;;;;;5068800;28;20046;-79
2021/10/21 03:19:53;;;;;;;;;;;11.30;99.90;;;;;;5069507;28;19947;-79
2021/10/21 03:22:20;;;;;;;;;;;11.30;99.90;;;;;;5066246;28;19971;-77
2021/10/21 03:24:48;;;;;;;;;;;11.30;99.90;;;;;;5067774;28;19950;-79
2021/10/21 03:27:16;;;;;;;;;;;11.30;99.90;;;;;;5068754;28;19953;-78
2021/10/21 03:29:44;;;;;;;;;;;11.40;99.90;;;;;;5064591;28;19961;-79
2021/10/21 03:32:11;;;;;;;;;;;11.40;99.90;;;;;;5067604;28;19957;-78
2021/10/21 03:34:40;;;;;;;;;;;11.40;99.90;;;;;;5067717;28;20006;-79
2021/10/21 03:37:08;;;;;;;;;;;11.40;99.90;;;;;;5068353;28;19943;-77
2021/10/21 03:39:37;;;;;;;;;;;11.30;99.90;;;;;;5068248;28;20478;-78
2021/10/21 03:42:08;;;;;;;;;;;11.30;99.90;;;;;;5062839;28;19970;-77
2021/10/21 03:44:38;;;;;;;;;;;11.20;99.90;;;;;;5066311;28;19948;-78
2021/10/21 03:47:05;;;;;;;;;;;11.20;99.90;;;;;;5065969;28;19950;-79
2021/10/21 03:49:32;;;;;;;;;;;11.20;99.90;;;;;;5069062;28;20488;-77
2021/10/21 03:52:00;;;;;;;;;;;11.10;99.90;;;;;;5067744;28;19953;-78
2021/10/21 03:54:31;;;;;;;;;;;11.10;99.90;;;;;;5067640;28;19949;-78
2021/10/21 03:57:04;;;;;;;;;;;10.90;99.90;;;;;;5067956;28;20770;-78
2021/10/21 03:59:31;;;;;;;;;;;10.90;99.90;;;;;;5066755;28;19998;-79
2021/10/21 04:01:59;;;;;;;;;;;10.90;99.90;;;;;;5065738;28;19978;-79
2021/10/21 04:04:27;;;;;;;;;;;10.70;99.90;;;;;;5069428;28;20302;-81
2021/10/21 04:06:54;;;;;;;;;;;10.70;99.90;;;;;;5072765;28;19998;-80
2021/10/21 04:09:22;;;;;;;;;;;10.70;99.90;;;;;;5071197;28;20483;-80
2021/10/21 04:11:54;;;;;;;;;;;10.70;99.90;;;;;;5070533;28;19977;-81
2021/10/21 04:14:21;;;;;;;;;;;10.70;99.90;;;;;;5069873;28;20045;-80
2021/10/21 04:16:48;;;;;;;;;;;10.60;99.90;;;;;;5072803;28;20367;-79
2021/10/21 04:19:16;;;;;;;;;;;10.60;99.90;;;;;;5070232;28;20514;-76
2021/10/21 04:21:44;;;;;;;;;;;10.50;99.90;;;;;;5073170;28;20395;-76
2021/10/21 04:24:11;;;;;;;;;;;10.40;99.90;;;;;;5067913;28;20038;-76
2021/10/21 04:26:40;;;;;;;;;;;10.30;99.90;;;;;;5067134;28;19965;-76
2021/10/21 04:29:10;;;;;;;;;;;10.30;99.90;;;;;;5070851;28;20053;-75
2021/10/21 04:31:37;;;;;;;;;;;10.20;99.90;;;;;;5065298;28;20384;-75
2021/10/21 04:34:04;;;;;;;;;;;10.30;99.90;;;;;;5071269;28;19958;-76
2021/10/21 04:36:34;;;;;;;;;;;10.30;99.90;;;;;;5069761;28;20122;-76
2021/10/21 04:39:02;;;;;;;;;;;10.30;99.90;;;;;;5069696;28;20401;-76
2021/10/21 04:41:33;;;;;;;;;;;10.40;99.90;;;;;;5072610;28;20414;-75
2021/10/21 04:44:00;;;;;;;;;;;10.40;99.90;;;;;;5073367;28;19960;-76
2021/10/21 04:46:29;;;;;;;;;;;10.40;99.90;;;;;;5072219;28;20441;-76
2021/10/21 04:48:56;;;;;;;;;;;10.40;99.90;;;;;;5069678;28;19949;-76
2021/10/21 04:51:24;;;;;;;;;;;10.30;99.90;;;;;;5070116;28;19949;-75
2021/10/21 04:53:56;;;;;;;;;;;10.30;99.90;;;;;;5062200;28;20428;-77
2021/10/21 04:56:25;;;;;;;;;;;10.30;99.90;;;;;;5071563;28;19962;-77
2021/10/21 04:58:52;;;;;;;;;;;10.20;99.90;;;;;;5070696;28;19952;-76
2021/10/21 05:01:20;;;;;;;;;;;10.20;99.90;;;;;;5071919;28;19963;-75
2021/10/21 05:03:54;;;;;;;;;;;10.20;99.90;;;;;;5069831;28;20390;-75
2021/10/21 05:06:22;;;;;;;;;;;10.20;99.90;;;;;;5071590;28;19951;-77
2021/10/21 05:08:50;;;;;;;;;;;10.20;99.90;;;;;;5070958;28;20034;-76
2021/10/21 05:11:21;;;;;;;;;;;10.20;99.90;;;;;;5071029;28;19959;-76
2021/10/21 05:13:47;;;;;;;;;;;10.10;99.90;;;;;;5069863;28;19960;-76
2021/10/21 05:16:14;;;;;;;;;;;10.10;99.90;;;;;;5066275;28;19969;-74
2021/10/21 05:18:41;;;;;;;;;;;10.10;99.90;;;;;;5065751;28;19946;-76
2021/10/21 05:21:09;;;;;;;;;;;10.00;99.90;;;;;;5065442;28;19968;-75
2021/10/21 05:23:36;;;;;;;;;;;10.00;99.90;;;;;;5063992;28;19980;-75
2021/10/21 05:26:02;;;;;;;;;;;10.00;99.90;;;;;;5063059;28;20043;-76
2021/10/21 05:28:29;;;;;;;;;;;10.00;99.90;;;;;;5068939;28;20330;-76
2021/10/21 05:30:56;;;;;;;;;;;10.00;99.90;;;;;;5065441;28;20329;-76
2021/10/21 05:33:25;;;;;;;;;;;10.00;99.90;;;;;;5064225;28;20406;-75
2021/10/21 05:35:51;;;;;;;;;;;10.10;99.90;;;;;;5063472;28;20053;-74
2021/10/21 05:38:19;;;;;;;;;;;10.10;99.90;;;;;;5065230;28;20053;-76
2021/10/21 05:40:46;;;;;;;;;;;10.10;99.90;;;;;;5066663;28;19984;-76
2021/10/21 05:43:13;;;;;;;;;;;10.10;99.90;;;;;;5064632;28;19974;-75
2021/10/21 05:45:39;;;;;;;;;;;10.20;99.90;;;;;;5066273;28;19968;-77
2021/10/21 05:48:06;;;;;;;;;;;10.20;99.90;;;;;;5063561;28;19972;-76
2021/10/21 05:50:32;;;;;;;;;;;10.20;99.90;;;;;;5061575;28;20065;-76
2021/10/21 05:52:59;;;;;;;;;;;10.30;99.90;;;;;;5065539;28;19963;-76
2021/10/21 05:55:27;;;;;;;;;;;10.30;99.90;;;;;;5068769;28;19950;-75
2021/10/21 05:57:54;;;;;;;;;;;10.40;99.90;;;;;;5067831;28;20017;-76
2021/10/21 06:00:21;;;;;;;;;;;10.40;99.90;;;;;;5059946;28;20042;-76
2021/10/21 06:02:47;;;;;;;;;;;10.50;99.90;;;;;;5068350;28;19962;-76
2021/10/21 06:05:14;;;;;;;;;;;10.50;99.90;;;;;;5065665;28;19968;-77
2021/10/21 06:07:41;;;;;;;;;;;10.50;99.90;;;;;;5066711;28;20057;-77
2021/10/21 06:10:08;;;;;;;;;;;10.50;99.90;;;;;;5061243;28;19972;-76
2021/10/21 06:12:36;;;;;;;;;;;10.50;99.90;;;;;;5064174;28;19948;-76
2021/10/21 06:15:04;;;;;;;;;;;10.50;99.90;;;;;;5072617;28;19996;-76
2021/10/21 06:17:31;;;;;;;;;;;10.50;99.90;;;;;;5068526;28;20013;-76
2021/10/21 06:19:58;;;;;;;;;;;10.50;99.90;;;;;;5066250;28;20048;-77
2021/10/21 06:22:24;;;;;;;;;;;10.50;99.90;;;;;;5068616;28;19969;-77
2021/10/21 06:24:51;;;;;;;;;;;10.50;99.90;;;;;;5071965;28;19947;-76
2021/10/21 06:27:18;;;;;;;;;;;10.40;99.90;;;;;;5064479;28;19970;-73
2021/10/21 06:29:46;;;;;;;;;;;10.50;99.90;;;;;;5066264;28;19951;-76
2021/10/21 06:32:13;;;;;;;;;;;10.40;99.90;;;;;;5069572;28;19953;-76
2021/10/21 06:34:43;;;;;;;;;;;10.50;99.90;;;;;;5065425;28;20016;-77
2021/10/21 06:37:09;;;;;;;;;;;10.60;99.90;;;;;;5064610;28;20050;-75
2021/10/21 06:39:36;;;;;;;;;;;10.60;99.90;;;;;;5062760;28;20368;-75
2021/10/21 06:42:03;;;;;;;;;;;10.60;99.90;;;;;;5063528;28;20471;-75
2021/10/21 06:44:29;;;;;;;;;;;10.70;99.90;;;;;;5065479;28;19952;-75
2021/10/21 06:46:57;;;;;;;;;;;10.70;99.90;;;;;;5060795;28;19952;-74
2021/10/21 06:49:25;;;;;;;;;;;10.70;99.90;;;;;;5063406;28;19949;-75
2021/10/21 06:51:51;;;;;;;;;;;10.80;99.90;;;;;;5067153;28;20299;-75
2021/10/21 06:54:18;;;;;;;;;;;10.80;99.90;;;;;;5060419;28;19955;-74
2021/10/21 06:56:45;;;;;;;;;;;10.80;99.90;;;;;;5070733;28;19955;-81
2021/10/21 06:59:11;;;;;;;;;;;10.80;99.90;;;;;;5063145;28;19953;-79
2021/10/21 07:01:40;;;;;;;;;;;10.80;99.90;;;;;;5069431;28;19995;-77
2021/10/21 07:04:08;;;;;;;;;;;10.80;99.90;;;;;;5063346;28;20026;-77
2021/10/21 07:06:35;;;;;;;;;;;10.90;99.90;;;;;;5065195;28;20360;-77
2021/10/21 07:09:02;;;;;;;;;;;10.80;99.90;;;;;;5061869;28;19955;-77
2021/10/21 07:11:30;;;;;;;;;;;10.90;99.90;;;;;;5065010;28;19950;-77
2021/10/21 07:13:56;;;;;;;;;;;10.80;99.90;;;;;;5064453;28;19980;-76
2021/10/21 07:16:23;;;;;;;;;;;10.70;99.90;;;;;;5066745;28;20057;-77
2021/10/21 07:18:50;;;;;;;;;;;10.70;99.90;;;;;;5063814;28;19957;-80
2021/10/21 07:21:18;;;;;;;;;;;10.70;99.90;;;;;;5066929;28;19964;-78
2021/10/21 07:23:45;;;;;;;;;;;10.60;99.90;;;;;;5064696;28;19984;-78
2021/10/21 07:26:12;;;;;;;;;;;10.60;99.90;;;;;;5066696;28;19968;-78
2021/10/21 07:28:39;;;;;;;;;;;10.60;99.90;;;;;;5061778;28;19953;-78
2021/10/21 07:31:06;;;;;;;;;;;10.60;99.90;;;;;;5064617;28;19951;-78
2021/10/21 07:33:33;;;;;;;;;;;10.60;99.90;;;;;;5061729;28;19947;-80
2021/10/21 07:35:59;;;;;;;;;;;10.60;99.90;;;;;;5067597;28;19961;-79
2021/10/21 07:38:28;;;;;;;;;;;10.70;99.90;;;;;;5068793;28;19952;-79
2021/10/21 07:40:55;;;;;;;;;;;10.70;99.90;;;;;;5066053;28;19948;-78
2021/10/21 07:43:22;;;;;;;;;;;10.70;99.90;;;;;;5067094;28;19961;-78
2021/10/21 07:45:50;;;;;;;;;;;10.80;99.90;;;;;;5066973;28;19947;-79
2021/10/21 07:48:17;;;;;;;;;;;10.90;99.90;;;;;;5063662;28;20060;-79
2021/10/21 07:50:44;;;;;;;;;;;11.00;99.90;;;;;;5066050;28;19950;-77
2021/10/21 07:53:11;;;;;;;;;;;11.00;99.90;;;;;;5065392;28;19954;-77
2021/10/21 07:55:39;;;;;;;;;;;11.50;99.90;;;;;;5062167;28;19988;-79
2021/10/21 07:58:05;;;;;;;;;;;12.50;99.90;;;;;;5059835;28;20049;-79
2021/10/21 08:00:33;;;;;;;;;;;12.90;99.90;;;;;;5063346;28;19946;-79
2021/10/21 08:03:00;;;;;;;;;;;12.80;99.90;;;;;;5064831;28;19964;-78
2021/10/21 08:05:27;;;;;;;;;;;13.10;99.90;;;;;;5063899;28;20004;-78
2021/10/21 08:07:54;;;;;;;;;;;13.60;99.90;;;;;;5057934;28;20034;-78
2021/10/21 08:10:21;;;;;;;;;;;13.50;99.90;;;;;;5062822;28;19957;-77
2021/10/21 08:12:50;;;;;;;;;;;13.30;99.90;;;;;;5063458;28;19949;-78
2021/10/21 08:15:17;;;;;;;;;;;13.10;99.90;;;;;;5064971;28;19988;-79
2021/10/21 08:17:44;;;;;;;;;;;14.00;99.90;;;;;;5062660;28;20052;-80
2021/10/21 08:20:12;;;;;;;;;;;14.70;99.90;;;;;;5062709;28;20022;-77
2021/10/21 08:22:40;;;;;;;;;;;15.00;97.80;;;;;;5062342;28;20451;-78
2021/10/21 08:25:07;;;;;;;;;;;15.10;96.90;;;;;;5062976;28;19952;-78
2021/10/21 08:27:33;;;;;;;;;;;13.80;96.40;;;;;;5061882;28;19960;-77
2021/10/21 08:30:01;;;;;;;;;;;13.00;98.00;;;;;;5065907;28;19949;-77
2021/10/21 08:32:29;;;;;;;;;;;12.60;98.80;;;;;;5065716;28;19950;-79
2021/10/21 08:34:56;;;;;;;;;;;12.30;99.10;;;;;;5059521;28;19956;-78
2021/10/21 08:37:23;;;;;;;;;;;12.30;99.90;;;;;;5060173;28;20141;-78
2021/10/21 08:39:49;;;;;;;;;;;12.30;99.70;;;;;;5061329;28;19966;-77
2021/10/21 08:42:19;;;;;;;;;;;12.10;99.90;;;;;;5065001;28;19959;-77
2021/10/21 08:44:46;;;;;;;;;;;12.10;99.90;;;;;;5059169;28;19972;-80
2021/10/21 08:47:14;;;;;;;;;;;12.00;99.90;;;;;;5069939;28;19957;-77
2021/10/21 08:49:41;;;;;;;;;;;11.90;99.90;;;;;;5068374;28;19999;-76
2021/10/21 08:52:08;;;;;;;;;;;11.90;99.90;;;;;;5067290;28;19953;-85
2021/10/21 08:54:35;;;;;;;;;;;11.80;99.90;;;;;;5069187;28;19964;-79
2021/10/21 08:57:03;;;;;;;;;;;11.80;99.90;;;;;;5068954;28;20482;-82
2021/10/21 08:59:30;;;;;;;;;;;11.90;99.90;;;;;;5067608;28;20421;-82
2021/10/21 09:02:07;;;;;;;;;;;11.90;99.90;;;;;;5067980;28;20000;-86
2021/10/21 09:04:51;;;;;;;;;;;11.80;99.90;;;;;;5064906;28;19969;-79
2021/10/21 09:10:06;;;;;;;;;;;11.80;99.90;;;;;;5068845;28;20093;-82
2021/10/21 09:12:39;;;;;;;;;;;11.70;99.90;;;;;;5070050;28;20443;-81
2021/10/21 09:15:09;;;;;;;;;;;11.70;99.90;;;;;;5066193;28;20352;-82
2021/10/21 09:17:36;;;;;;;;;;;11.70;99.90;;;;;;5062533;28;19999;-81
2021/10/21 09:20:17;;;;;;;;;;;11.70;99.90;;;;;;5069668;28;20708;-81
2021/10/21 09:22:52;;;;;;;;;;;11.70;99.90;;;;;;5072882;28;20412;-80
2021/10/21 09:25:22;;;;;;;;;;;11.70;99.90;;;;;;5061594;28;19946;-79
2021/10/21 09:27:48;;;;;;;;;;;11.70;99.90;;;;;;5068160;28;20039;-79
2021/10/21 09:30:19;;;;;;;;;;;11.70;99.90;;;;;;5066812;28;20003;-81
2021/10/21 09:32:46;;;;;;;;;;;11.70;99.90;;;;;;5070405;28;20046;-81
2021/10/21 09:35:15;;;;;;;;;;;11.70;99.90;;;;;;5070233;28;20894;-80
2021/10/21 09:37:43;;;;;;;;;;;11.50;99.90;;;;;;5069208;28;19961;-81
2021/10/21 09:40:13;;;;;;;;;;;11.40;99.90;;;;;;5065842;28;20539;-74
2021/10/21 09:42:40;;;;;;;;;;;11.20;99.90;;;;;;5067135;28;20077;-79
2021/10/21 09:45:10;;;;;;;;;;;11.10;99.90;;;;;;5064333;28;19966;-81
2021/10/21 09:47:37;;;;;;;;;;;11.00;99.90;;;;;;5065362;28;19958;-77
2021/10/21 09:50:15;;;;;;;;;;;11.00;99.90;;;;;;5065785;28;19954;-79
2021/10/21 09:52:43;;;;;;;;;;;11.00;99.90;;;;;;5066449;28;20050;-85
2021/10/21 09:55:11;;;;;;;;;;;11.10;99.90;;;;;;5069038;28;20013;-84
2021/10/21 09:57:39;;;;;;;;;;;11.30;99.90;;;;;;5067334;28;20075;-82
2021/10/21 10:00:07;;;;;;;;;;;11.50;99.90;;;;;;5071460;28;19952;-83
2021/10/21 10:02:34;;;;;;;;;;;11.60;99.90;;;;;;5069653;28;20328;-83
2021/10/21 10:05:04;;;;;;;;;;;11.90;99.90;;;;;;5072681;28;19978;-82
2021/10/21 10:07:31;;;;;;;;;;;12.00;99.90;;;;;;5073216;28;20381;-82
2021/10/21 10:10:00;;;;;;;;;;;12.20;99.90;;;;;;5061430;28;20040;-82
2021/10/21 10:12:29;;;;;;;;;;;12.30;99.90;;;;;;5062235;28;20097;-79
2021/10/21 10:14:57;;;;;;;;;;;12.30;99.90;;;;;;5064870;28;19968;-80
2021/10/21 10:17:24;;;;;;;;;;;12.30;99.90;;;;;;5065112;28;19968;-79
2021/10/21 10:19:51;;;;;;;;;;;12.20;99.90;;;;;;5063680;28;19980;-79
2021/10/21 10:22:20;;;;;;;;;;;12.20;99.90;;;;;;5063751;28;20401;-77
2021/10/21 10:24:48;;;;;;;;;;;12.20;99.90;;;;;;5068460;28;20321;-75
2021/10/21 10:27:19;;;;;;;;;;;12.20;99.90;;;;;;5061458;28;19967;-75
2021/10/21 10:29:47;;;;;;;;;;;12.10;99.90;;;;;;5062094;28;20067;-79
2021/10/21 10:32:40;;;;;;;;;;;11.90;99.90;;;;;;5062848;28;19978;-78
2021/10/21 10:35:08;;;;;;;;;;;11.90;99.90;;;;;;5047130;28;19954;-79
2021/10/21 10:37:39;;;;;;;;;;;11.90;99.90;;;;;;5064907;28;19954;-78
2021/10/21 10:40:06;;;;;;;;;;;11.90;99.90;;;;;;5062558;28;19983;-76
2021/10/21 10:42:48;;;;;;;;;;;12.00;99.90;;;;;;5065046;28;19958;-76
2021/10/21 10:45:14;;;;;;;;;;;11.90;99.90;;;;;;5062847;28;19980;-76
2021/10/21 10:47:42;;;;;;;;;;;11.90;99.90;;;;;;5061294;28;20386;-76
2021/10/21 10:50:14;;;;;;;;;;;12.00;99.90;;;;;;5064794;28;20517;-77
2021/10/21 10:52:49;;;;;;;;;;;12.30;99.90;;;;;;5063899;28;20593;-77
2021/10/21 10:55:17;;;;;;;;;;;12.50;99.90;;;;;;5062222;28;19954;-77
2021/10/21 10:57:53;;;;;;;;;;;12.80;99.90;;;;;;5065772;28;20008;-79
2021/10/21 11:00:37;;;;;;;;;;;12.90;99.90;;;;;;5055967;28;19978;-82
2021/10/21 11:03:04;;;;;;;;;;;12.50;99.90;;;;;;5069256;28;20028;-80
2021/10/21 11:05:46;;;;;;;;;;;12.10;99.90;;;;;;5065104;28;20051;-82
2021/10/21 11:08:14;;;;;;;;;;;11.80;99.90;;;;;;5068214;28;19954;-81
2021/10/21 11:10:42;;;;;;;;;;;10.90;99.90;;;;;;5067116;28;19994;-79
2021/10/21 11:13:38;;;;;;;;;;;10.40;99.90;;;;;;5067427;28;19955;-80
2021/10/21 11:16:25;;;;;;;;;;;10.30;99.90;;;;;;5064097;28;20036;-78
2021/10/21 11:18:52;;;;;;;;;;;10.10;99.90;;;;;;5065949;28;19960;-77
2021/10/21 11:21:42;;;;;;;;;;;10.20;99.90;;;;;;5064998;28;19979;-76
2021/10/21 11:24:10;;;;;;;;;;;10.50;99.90;;;;;;5063603;28;19973;-77
2021/10/21 11:26:37;;;;;;;;;;;10.70;99.90;;;;;;5062141;28;20407;-76
2021/10/21 11:29:04;;;;;;;;;;;10.80;99.90;;;;;;5065702;28;19970;-79
2021/10/21 11:31:33;;;;;;;;;;;10.90;99.90;;;;;;5066975;28;19977;-79
2021/10/21 11:34:01;;;;;;;;;;;11.10;99.90;;;;;;5072375;28;19955;-78
2021/10/21 11:36:27;;;;;;;;;;;11.20;99.90;;;;;;5065702;28;19955;-78
2021/10/21 11:39:04;;;;;;;;;;;11.40;99.90;;;;;;5067011;28;20042;-77
2021/10/21 11:41:32;;;;;;;;;;;11.40;99.90;;;;;;5063352;28;19952;-78
2021/10/21 11:43:59;;;;;;;;;;;11.50;99.90;;;;;;5065516;28;19961;-77
2021/10/21 11:46:26;;;;;;;;;;;11.40;99.90;;;;;;5061934;28;19954;-78
2021/10/21 11:48:55;;;;;;;;;;;11.30;99.90;;;;;;5062884;28;19940;-79
2021/10/21 11:51:28;;;;;;;;;;;11.40;99.90;;;;;;5060643;28;20047;-75
2021/10/21 11:53:56;;;;;;;;;;;11.50;99.90;;;;;;5060749;28;19956;-75
2021/10/21 11:56:24;;;;;;;;;;;11.20;99.90;;;;;;5064227;28;20039;-78
2021/10/21 11:58:56;;;;;;;;;;;11.20;99.90;;;;;;5061798;28;20096;-80
2021/10/21 12:01:24;;;;;;;;;;;11.30;99.90;;;;;;5069086;28;20015;-81
2021/10/21 12:03:51;;;;;;;;;;;11.50;99.90;;;;;;5063432;28;19967;-84
2021/10/21 12:06:17;;;;;;;;;;;11.60;99.90;;;;;;5065490;28;20449;-82
2021/10/21 12:08:49;;;;;;;;;;;11.70;99.90;;;;;;5066188;28;19940;-77
2021/10/21 12:11:18;;;;;;;;;;;11.60;99.90;;;;;;5068660;28;19952;-82
2021/10/21 12:13:44;;;;;;;;;;;11.70;99.90;;;;;;5068216;28;20040;-82
2021/10/21 12:16:14;;;;;;;;;;;11.50;99.90;;;;;;5068240;28;20055;-81
2021/10/21 12:18:41;;;;;;;;;;;11.40;99.90;;;;;;5061692;28;19938;-81
2021/10/21 12:21:08;;;;;;;;;;;11.40;99.90;;;;;;5069025;28;20030;-81
2021/10/21 12:23:36;;;;;;;;;;;11.40;99.90;;;;;;5067734;28;19993;-80
2021/10/21 12:26:04;;;;;;;;;;;11.60;99.90;;;;;;5067976;28;20474;-79
2021/10/21 12:28:39;;;;;;;;;;;11.90;99.90;;;;;;5067347;28;20047;-79
2021/10/21 12:31:17;;;;;;;;;;;11.90;99.90;;;;;;5063085;28;19945;-80
2021/10/21 12:33:51;;;;;;;;;;;12.00;99.90;;;;;;5067231;28;19939;-82
2021/10/21 12:36:20;;;;;;;;;;;12.10;99.90;;;;;;5068908;28;19942;-80
2021/10/21 12:38:50;;;;;;;;;;;11.90;99.90;;;;;;5069591;28;19945;-81
2021/10/21 12:41:17;;;;;;;;;;;11.50;99.90;;;;;;5071632;28;20045;-81
2021/10/21 12:43:43;;;;;;;;;;;11.30;99.90;;;;;;5068566;28;20040;-81
2021/10/21 12:49:12;;;;;;;;;;;11.00;99.90;;;;;;5118612;27;19951;-81
2021/10/21 12:51:40;;;;;;;;;;;11.10;99.90;;;;;;5107426;27;20043;-82
2021/10/21 12:54:07;;;;;;;;;;;11.20;99.90;;;;;;5103880;28;19941;-80
2021/10/21 12:56:39;;;;;;;;;;;11.40;99.90;;;;;;5118544;28;19949;-84
2021/10/21 12:59:07;;;;;;;;;;;11.40;99.90;;;;;;5119880;28;19962;-86
2021/10/21 13:01:49;;;;;;;;;;;11.50;99.90;;;;;;5126037;28;19940;-83
2021/10/21 13:04:31;;;;;;;;;;;11.60;99.90;;;;;;5110287;28;20002;-85
2021/10/21 13:06:59;;;;;;;;;;;11.50;99.90;;;;;;5105647;28;20046;-82
2021/10/21 13:09:25;;;;;;;;;;;11.20;99.90;;;;;;5107206;28;20730;-82
2021/10/21 13:11:52;;;;;;;;;;;11.10;99.90;;;;;;5110379;28;19948;-83
2021/10/21 13:14:19;;;;;;;;;;;11.00;99.90;;;;;;5113683;28;20000;-85
2021/10/21 13:16:47;;;;;;;;;;;11.00;99.90;;;;;;5112235;28;19942;-78
2021/10/21 13:19:13;;;;;;;;;;;11.10;99.90;;;;;;5103065;28;19959;-78
2021/10/21 13:21:40;;;;;;;;;;;11.10;99.90;;;;;;5104433;28;20005;-77
2021/10/21 13:24:08;;;;;;;;;;;11.10;99.90;;;;;;5108090;28;20012;-78
2021/10/21 13:26:35;;;;;;;;;;;11.20;99.90;;;;;;5108788;28;19948;-77
2021/10/21 13:29:05;;;;;;;;;;;11.30;99.90;;;;;;5102614;28;19959;-73
2021/10/21 13:31:31;;;;;;;;;;;11.20;99.90;;;;;;5111395;27;19942;-75
2021/10/21 13:33:58;;;;;;;;;;;11.40;99.90;;;;;;5106679;28;19944;-75
2021/10/21 13:36:25;;;;;;;;;;;11.40;99.90;;;;;;5107044;27;19987;-77
2021/10/21 13:38:52;;;;;;;;;;;11.20;99.90;;;;;;5099856;28;19964;-75
2021/10/21 13:41:22;;;;;;;;;;;11.20;99.90;;;;;;5108674;28;19949;-74
2021/10/21 13:43:48;;;;;;;;;;;11.20;99.90;;;;;;5108939;27;20002;-75
2021/10/21 13:46:16;;;;;;;;;;;11.20;99.90;;;;;;5109677;28;20408;-75
2021/10/21 13:48:42;;;;;;;;;;;11.20;99.90;;;;;;5123461;27;20484;-74
2021/10/21 13:51:09;;;;;;;;;;;11.20;99.90;;;;;;5122144;27;19924;-74
2021/10/21 13:53:36;;;;;;;;;;;11.30;99.90;;;;;;5121639;27;19927;-75
2021/10/21 13:56:03;;;;;;;;;;;11.50;99.90;;;;;;5124115;27;19945;-75
2021/10/21 13:58:31;;;;;;;;;;;11.50;99.90;;;;;;5121325;27;20300;-74
2021/10/21 14:00:58;;;;;;;;;;;11.50;99.90;;;;;;5105322;27;20565;-75
2021/10/21 14:03:25;;;;;;;;;;;11.30;99.90;;;;;;5116768;27;19973;-75
2021/10/21 14:05:51;;;;;;;;;;;11.20;99.90;;;;;;5107567;27;19952;-74
2021/10/21 14:08:18;;;;;;;;;;;11.10;99.90;;;;;;5106496;27;19961;-73
2021/10/21 14:10:46;;;;;;;;;;;10.90;99.90;;;;;;5105108;27;19924;-72
2021/10/21 14:13:12;;;;;;;;;;;10.80;99.90;;;;;;5107992;27;20053;-73
2021/10/21 14:15:40;;;;;;;;;;;10.70;99.90;;;;;;5120054;27;19949;-76
2021/10/21 14:18:09;;;;;;;;;;;10.60;99.90;;;;;;5107057;27;19944;-73
2021/10/21 14:20:35;;;;;;;;;;;10.60;99.90;;;;;;5109693;27;20038;-74
2021/10/21 14:23:02;;;;;;;;;;;10.50;99.90;;;;;;5107218;27;19948;-75
2021/10/21 14:25:29;;;;;;;;;;;10.50;99.90;;;;;;5112116;27;19941;-75
2021/10/21 14:27:56;;;;;;;;;;;10.50;99.90;;;;;;5113861;27;19978;-74
2021/10/21 14:30:22;;;;;;;;;;;10.60;99.90;;;;;;5108119;27;19980;-73